sensor_id;sensor_type;location;lat;lon;timestamp;temperature;humidity
23618;DHT22;18207;32.078;34.818;2023-04-06T00:01:18;24.70;38.40
23618;DHT22;18207;32.078;34.818;2023-04-06T00:03:49;24.70;38.40
23618;DHT22;18207;32.078;34.818;2023-04-06T00:06:21;24.70;38.50
23618;DHT22;18207;32.078;34.818;2023-04-06T00:08:52;24.70;38.50
23618;DHT22;18207;32.078;34.818;2023-04-06T00:11:23;24.70;38.50
23618;DHT22;18207;32.078;34.818;2023-04-06T00:13:54;24.60;38.40
23618;DHT22;18207;32.078;34.818;2023-04-06T00:16:25;24.60;38.50
23618;DHT22;18207;32.078;34.818;2023-04-06T00:18:57;24.60;38.50
23618;DHT22;18207;32.078;34.818;2023-04-06T00:21:29;24.60;38.60
23618;DHT22;18207;32.078;34.818;2023-04-06T00:24:00;24.60;38.50
23618;DHT22;18207;32.078;34.818;2023-04-06T00:26:31;24.60;38.50
23618;DHT22;18207;32.078;34.818;2023-04-06T00:29:01;24.50;38.50
23618;DHT22;18207;32.078;34.818;2023-04-06T00:31:32;24.50;38.50
23618;DHT22;18207;32.078;34.818;2023-04-06T00:34:03;24.50;38.50
23618;DHT22;18207;32.078;34.818;2023-04-06T00:36:35;24.50;38.40
23618;DHT22;18207;32.078;34.818;2023-04-06T00:39:06;24.50;38.40
23618;DHT22;18207;32.078;34.818;2023-04-06T00:41:36;24.50;38.50
23618;DHT22;18207;32.078;34.818;2023-04-06T00:44:07;24.50;38.40
23618;DHT22;18207;32.078;34.818;2023-04-06T00:46:37;24.50;38.50
23618;DHT22;18207;32.078;34.818;2023-04-06T00:49:08;24.50;38.50
23618;DHT22;18207;32.078;34.818;2023-04-06T00:51:41;24.40;38.50
23618;DHT22;18207;32.078;34.818;2023-04-06T00:54:11;24.40;38.50
23618;DHT22;18207;32.078;34.818;2023-04-06T00:56:42;24.40;38.60
23618;DHT22;18207;32.078;34.818;2023-04-06T00:59:13;24.30;38.50
23618;DHT22;18207;32.078;34.818;2023-04-06T01:01:46;24.30;38.60
23618;DHT22;18207;32.078;34.818;2023-04-06T01:04:16;24.30;38.70
23618;DHT22;18207;32.078;34.818;2023-04-06T01:06:48;24.30;38.70
23618;DHT22;18207;32.078;34.818;2023-04-06T01:09:18;24.30;38.90
23618;DHT22;18207;32.078;34.818;2023-04-06T01:11:49;24.30;38.90
23618;DHT22;18207;32.078;34.818;2023-04-06T01:14:19;24.30;38.90
23618;DHT22;18207;32.078;34.818;2023-04-06T01:16:50;24.20;38.80
23618;DHT22;18207;32.078;34.818;2023-04-06T01:19:22;24.20;38.90
23618;DHT22;18207;32.078;34.818;2023-04-06T01:21:55;24.20;39.00
23618;DHT22;18207;32.078;34.818;2023-04-06T01:24:27;24.20;39.10
23618;DHT22;18207;32.078;34.818;2023-04-06T01:26:58;24.10;39.10
23618;DHT22;18207;32.078;34.818;2023-04-06T01:29:28;24.10;39.10
23618;DHT22;18207;32.078;34.818;2023-04-06T01:31:58;24.10;39.10
23618;DHT22;18207;32.078;34.818;2023-04-06T01:34:28;24.10;39.10
23618;DHT22;18207;32.078;34.818;2023-04-06T01:36:58;24.10;39.20
23618;DHT22;18207;32.078;34.818;2023-04-06T01:39:31;24.10;39.20
23618;DHT22;18207;32.078;34.818;2023-04-06T01:42:02;24.10;39.30
23618;DHT22;18207;32.078;34.818;2023-04-06T01:44:32;24.00;39.30
23618;DHT22;18207;32.078;34.818;2023-04-06T01:47:03;24.00;39.30
23618;DHT22;18207;32.078;34.818;2023-04-06T01:49:33;24.00;39.30
23618;DHT22;18207;32.078;34.818;2023-04-06T01:52:04;24.00;39.30
23618;DHT22;18207;32.078;34.818;2023-04-06T01:54:36;23.90;39.30
23618;DHT22;18207;32.078;34.818;2023-04-06T01:57:07;23.90;39.40
23618;DHT22;18207;32.078;34.818;2023-04-06T01:59:38;23.90;39.50
23618;DHT22;18207;32.078;34.818;2023-04-06T02:02:08;23.90;39.50
23618;DHT22;18207;32.078;34.818;2023-04-06T02:04:40;23.90;39.50
23618;DHT22;18207;32.078;34.818;2023-04-06T02:07:10;23.90;39.50
23618;DHT22;18207;32.078;34.818;2023-04-06T02:09:42;23.80;39.50
23618;DHT22;18207;32.078;34.818;2023-04-06T02:12:13;23.90;39.70
23618;DHT22;18207;32.078;34.818;2023-04-06T02:14:43;23.80;39.70
23618;DHT22;18207;32.078;34.818;2023-04-06T02:17:13;23.80;39.70
23618;DHT22;18207;32.078;34.818;2023-04-06T02:19:44;23.80;39.70
23618;DHT22;18207;32.078;34.818;2023-04-06T02:22:15;23.90;39.80
23618;DHT22;18207;32.078;34.818;2023-04-06T02:24:46;23.80;39.70
23618;DHT22;18207;32.078;34.818;2023-04-06T02:27:17;23.80;39.80
23618;DHT22;18207;32.078;34.818;2023-04-06T02:29:47;23.80;39.70
23618;DHT22;18207;32.078;34.818;2023-04-06T02:32:18;23.80;39.80
23618;DHT22;18207;32.078;34.818;2023-04-06T02:34:48;23.80;39.80
23618;DHT22;18207;32.078;34.818;2023-04-06T02:37:19;23.70;39.80
23618;DHT22;18207;32.078;34.818;2023-04-06T02:39:51;23.70;39.70
23618;DHT22;18207;32.078;34.818;2023-04-06T02:42:21;23.70;39.90
23618;DHT22;18207;32.078;34.818;2023-04-06T02:44:51;23.70;39.90
23618;DHT22;18207;32.078;34.818;2023-04-06T02:47:23;23.70;39.90
23618;DHT22;18207;32.078;34.818;2023-04-06T02:49:53;23.70;40.00
23618;DHT22;18207;32.078;34.818;2023-04-06T02:52:24;23.70;40.00
23618;DHT22;18207;32.078;34.818;2023-04-06T02:54:57;23.60;40.00
23618;DHT22;18207;32.078;34.818;2023-04-06T02:57:27;23.60;40.00
23618;DHT22;18207;32.078;34.818;2023-04-06T02:59:57;23.60;40.00
23618;DHT22;18207;32.078;34.818;2023-04-06T03:02:28;23.60;40.00
23618;DHT22;18207;32.078;34.818;2023-04-06T03:04:58;23.60;40.10
23618;DHT22;18207;32.078;34.818;2023-04-06T03:07:30;23.60;40.10
23618;DHT22;18207;32.078;34.818;2023-04-06T03:10:03;23.50;40.10
23618;DHT22;18207;32.078;34.818;2023-04-06T03:12:34;23.50;40.20
23618;DHT22;18207;32.078;34.818;2023-04-06T03:15:06;23.50;40.20
23618;DHT22;18207;32.078;34.818;2023-04-06T03:17:37;23.50;40.20
23618;DHT22;18207;32.078;34.818;2023-04-06T03:20:09;23.50;40.20
23618;DHT22;18207;32.078;34.818;2023-04-06T03:22:40;23.50;40.20
23618;DHT22;18207;32.078;34.818;2023-04-06T03:25:12;23.50;40.90
23618;DHT22;18207;32.078;34.818;2023-04-06T03:27:43;23.50;40.40
23618;DHT22;18207;32.078;34.818;2023-04-06T03:30:13;23.50;40.40
23618;DHT22;18207;32.078;34.818;2023-04-06T03:32:45;23.50;40.40
23618;DHT22;18207;32.078;34.818;2023-04-06T03:35:15;23.50;40.40
23618;DHT22;18207;32.078;34.818;2023-04-06T03:37:46;23.40;40.30
23618;DHT22;18207;32.078;34.818;2023-04-06T03:40:19;23.40;40.30
23618;DHT22;18207;32.078;34.818;2023-04-06T03:42:50;23.40;40.40
23618;DHT22;18207;32.078;34.818;2023-04-06T03:45:20;23.40;40.40
23618;DHT22;18207;32.078;34.818;2023-04-06T03:47:50;23.40;40.40
23618;DHT22;18207;32.078;34.818;2023-04-06T03:50:21;23.40;40.40
23618;DHT22;18207;32.078;34.818;2023-04-06T03:52:51;23.30;40.50
23618;DHT22;18207;32.078;34.818;2023-04-06T03:55:24;23.40;40.60
23618;DHT22;18207;32.078;34.818;2023-04-06T03:57:54;23.30;40.60
23618;DHT22;18207;32.078;34.818;2023-04-06T04:00:25;23.30;40.60
23618;DHT22;18207;32.078;34.818;2023-04-06T04:02:56;23.30;40.60
23618;DHT22;18207;32.078;34.818;2023-04-06T04:05:28;23.30;40.60
23618;DHT22;18207;32.078;34.818;2023-04-06T04:07:59;23.30;40.70
23618;DHT22;18207;32.078;34.818;2023-04-06T04:10:31;23.30;40.80
23618;DHT22;18207;32.078;34.818;2023-04-06T04:13:01;23.30;40.80
23618;DHT22;18207;32.078;34.818;2023-04-06T04:15:32;23.20;40.70
23618;DHT22;18207;32.078;34.818;2023-04-06T04:18:03;23.30;40.80
23618;DHT22;18207;32.078;34.818;2023-04-06T04:20:33;23.20;40.80
23618;DHT22;18207;32.078;34.818;2023-04-06T04:23:03;23.20;40.80
23618;DHT22;18207;32.078;34.818;2023-04-06T04:25:35;23.20;40.80
23618;DHT22;18207;32.078;34.818;2023-04-06T04:28:06;23.20;40.90
23618;DHT22;18207;32.078;34.818;2023-04-06T04:30:36;23.20;40.90
23618;DHT22;18207;32.078;34.818;2023-04-06T04:33:07;23.20;40.90
23618;DHT22;18207;32.078;34.818;2023-04-06T04:35:38;23.20;40.90
23618;DHT22;18207;32.078;34.818;2023-04-06T04:38:08;23.20;41.00
23618;DHT22;18207;32.078;34.818;2023-04-06T04:40:40;23.20;41.10
23618;DHT22;18207;32.078;34.818;2023-04-06T04:43:11;23.20;41.20
23618;DHT22;18207;32.078;34.818;2023-04-06T04:45:41;23.20;41.20
23618;DHT22;18207;32.078;34.818;2023-04-06T04:48:11;23.20;41.20
23618;DHT22;18207;32.078;34.818;2023-04-06T04:50:40;23.20;41.20
23618;DHT22;18207;32.078;34.818;2023-04-06T04:53:10;23.30;41.40
23618;DHT22;18207;32.078;34.818;2023-04-06T04:55:43;23.30;41.40
23618;DHT22;18207;32.078;34.818;2023-04-06T04:58:13;23.40;41.40
23618;DHT22;18207;32.078;34.818;2023-04-06T05:00:44;23.40;41.40
23618;DHT22;18207;32.078;34.818;2023-04-06T05:03:17;23.40;41.40
23618;DHT22;18207;32.078;34.818;2023-04-06T05:05:51;23.40;41.40
23618;DHT22;18207;32.078;34.818;2023-04-06T05:08:22;23.50;41.40
23618;DHT22;18207;32.078;34.818;2023-04-06T05:10:54;23.50;41.50
23618;DHT22;18207;32.078;34.818;2023-04-06T05:13:24;23.50;41.50
23618;DHT22;18207;32.078;34.818;2023-04-06T05:15:55;23.60;41.60
23618;DHT22;18207;32.078;34.818;2023-04-06T05:18:26;23.60;41.60
23618;DHT22;18207;32.078;34.818;2023-04-06T05:21:00;23.70;41.70
23618;DHT22;18207;32.078;34.818;2023-04-06T05:23:40;23.70;41.70
23618;DHT22;18207;32.078;34.818;2023-04-06T05:26:13;23.80;41.70
23618;DHT22;18207;32.078;34.818;2023-04-06T05:28:43;23.80;41.80
23618;DHT22;18207;32.078;34.818;2023-04-06T05:31:13;23.90;41.80
23618;DHT22;18207;32.078;34.818;2023-04-06T05:33:44;24.00;41.80
23618;DHT22;18207;32.078;34.818;2023-04-06T05:36:14;24.00;41.80
23618;DHT22;18207;32.078;34.818;2023-04-06T05:38:44;24.10;41.80
23618;DHT22;18207;32.078;34.818;2023-04-06T05:41:16;24.10;41.80
23618;DHT22;18207;32.078;34.818;2023-04-06T05:43:46;24.20;41.80
23618;DHT22;18207;32.078;34.818;2023-04-06T05:46:17;24.30;42.00
23618;DHT22;18207;32.078;34.818;2023-04-06T05:48:48;24.30;41.90
23618;DHT22;18207;32.078;34.818;2023-04-06T05:51:18;24.40;42.00
23618;DHT22;18207;32.078;34.818;2023-04-06T05:53:49;24.50;41.90
23618;DHT22;18207;32.078;34.818;2023-04-06T05:56:22;24.50;41.80
23618;DHT22;18207;32.078;34.818;2023-04-06T05:58:53;24.60;41.80
23618;DHT22;18207;32.078;34.818;2023-04-06T06:01:23;24.70;41.90
23618;DHT22;18207;32.078;34.818;2023-04-06T06:03:53;24.70;41.70
23618;DHT22;18207;32.078;34.818;2023-04-06T06:06:23;24.80;41.60
23618;DHT22;18207;32.078;34.818;2023-04-06T06:08:53;24.80;41.40
23618;DHT22;18207;32.078;34.818;2023-04-06T06:11:28;24.90;41.40
23618;DHT22;18207;32.078;34.818;2023-04-06T06:13:57;24.90;41.20
23618;DHT22;18207;32.078;34.818;2023-04-06T06:16:27;24.90;41.10
23618;DHT22;18207;32.078;34.818;2023-04-06T06:18:57;25.00;41.10
23618;DHT22;18207;32.078;34.818;2023-04-06T06:21:28;25.00;41.00
23618;DHT22;18207;32.078;34.818;2023-04-06T06:23:58;25.10;40.90
23618;DHT22;18207;32.078;34.818;2023-04-06T06:26:31;25.10;40.80
23618;DHT22;18207;32.078;34.818;2023-04-06T06:29:03;25.10;40.70
23618;DHT22;18207;32.078;34.818;2023-04-06T06:31:34;25.10;40.60
23618;DHT22;18207;32.078;34.818;2023-04-06T06:34:05;25.10;40.50
23618;DHT22;18207;32.078;34.818;2023-04-06T06:36:36;25.10;40.40
23618;DHT22;18207;32.078;34.818;2023-04-06T06:39:06;25.10;40.40
23618;DHT22;18207;32.078;34.818;2023-04-06T06:41:39;25.10;40.30
23618;DHT22;18207;32.078;34.818;2023-04-06T06:44:10;25.10;40.30
23618;DHT22;18207;32.078;34.818;2023-04-06T06:46:41;25.10;40.30
23618;DHT22;18207;32.078;34.818;2023-04-06T06:49:11;25.10;40.20
23618;DHT22;18207;32.078;34.818;2023-04-06T06:51:42;25.20;40.20
23618;DHT22;18207;32.078;34.818;2023-04-06T06:54:13;25.20;40.20
23618;DHT22;18207;32.078;34.818;2023-04-06T06:56:45;25.20;40.20
23618;DHT22;18207;32.078;34.818;2023-04-06T06:59:16;25.20;40.00
23618;DHT22;18207;32.078;34.818;2023-04-06T07:01:46;25.30;40.10
23618;DHT22;18207;32.078;34.818;2023-04-06T07:04:16;25.30;40.10
23618;DHT22;18207;32.078;34.818;2023-04-06T07:06:47;25.40;40.10
23618;DHT22;18207;32.078;34.818;2023-04-06T07:09:18;25.40;40.00
23618;DHT22;18207;32.078;34.818;2023-04-06T07:11:51;25.50;39.90
23618;DHT22;18207;32.078;34.818;2023-04-06T07:48:24;23.40;41.40
23618;DHT22;18207;32.078;34.818;2023-04-06T07:51:01;23.30;41.80
23618;DHT22;18207;32.078;34.818;2023-04-06T07:53:32;23.50;41.90
23618;DHT22;18207;32.078;34.818;2023-04-06T07:56:03;23.70;41.70
23618;DHT22;18207;32.078;34.818;2023-04-06T07:58:34;24.00;41.50
23618;DHT22;18207;32.078;34.818;2023-04-06T08:01:04;24.30;41.40
23618;DHT22;18207;32.078;34.818;2023-04-06T08:03:36;24.50;40.90
23618;DHT22;18207;32.078;34.818;2023-04-06T08:06:07;24.80;40.80
23618;DHT22;18207;32.078;34.818;2023-04-06T08:08:37;25.00;40.70
23618;DHT22;18207;32.078;34.818;2023-04-06T08:11:08;25.10;40.50
23618;DHT22;18207;32.078;34.818;2023-04-06T08:13:39;25.40;40.60
23618;DHT22;18207;32.078;34.818;2023-04-06T08:16:10;25.50;40.40
23618;DHT22;18207;32.078;34.818;2023-04-06T08:18:43;25.70;40.30
23618;DHT22;18207;32.078;34.818;2023-04-06T08:21:14;25.90;40.10
23618;DHT22;18207;32.078;34.818;2023-04-06T08:23:44;26.10;40.00
23618;DHT22;18207;32.078;34.818;2023-04-06T08:26:15;26.30;39.80
23618;DHT22;18207;32.078;34.818;2023-04-06T08:28:45;26.40;39.70
23618;DHT22;18207;32.078;34.818;2023-04-06T08:31:16;26.60;39.60
23618;DHT22;18207;32.078;34.818;2023-04-06T08:33:48;26.70;39.50
23618;DHT22;18207;32.078;34.818;2023-04-06T08:36:18;26.80;39.40
23618;DHT22;18207;32.078;34.818;2023-04-06T08:38:50;27.00;39.30
23618;DHT22;18207;32.078;34.818;2023-04-06T08:41:21;27.10;39.30
23618;DHT22;18207;32.078;34.818;2023-04-06T08:43:56;27.20;39.00
23618;DHT22;18207;32.078;34.818;2023-04-06T08:46:29;27.30;38.80
23618;DHT22;18207;32.078;34.818;2023-04-06T08:49:03;27.40;38.70
23618;DHT22;18207;32.078;34.818;2023-04-06T08:51:36;27.50;38.50
23618;DHT22;18207;32.078;34.818;2023-04-06T08:54:07;27.60;38.50
23618;DHT22;18207;32.078;34.818;2023-04-06T08:56:39;27.60;38.40
23618;DHT22;18207;32.078;34.818;2023-04-06T08:59:10;27.70;38.40
23618;DHT22;18207;32.078;34.818;2023-04-06T09:01:43;27.80;38.30
23618;DHT22;18207;32.078;34.818;2023-04-06T09:04:17;27.80;38.20
23618;DHT22;18207;32.078;34.818;2023-04-06T09:06:48;27.90;38.10
23618;DHT22;18207;32.078;34.818;2023-04-06T09:09:20;27.90;37.80
23618;DHT22;18207;32.078;34.818;2023-04-06T09:11:52;28.00;38.40
23618;DHT22;18207;32.078;34.818;2023-04-06T09:14:34;28.00;37.70
23618;DHT22;18207;32.078;34.818;2023-04-06T09:17:06;28.10;37.40
23618;DHT22;18207;32.078;34.818;2023-04-06T09:19:47;28.10;37.40
23618;DHT22;18207;32.078;34.818;2023-04-06T09:22:18;28.10;37.20
23618;DHT22;18207;32.078;34.818;2023-04-06T09:24:50;28.10;37.30
23618;DHT22;18207;32.078;34.818;2023-04-06T09:27:31;28.10;37.30
23618;DHT22;18207;32.078;34.818;2023-04-06T09:30:06;28.20;37.30
23618;DHT22;18207;32.078;34.818;2023-04-06T09:32:48;28.20;37.40
23618;DHT22;18207;32.078;34.818;2023-04-06T09:35:22;28.20;37.30
23618;DHT22;18207;32.078;34.818;2023-04-06T09:37:54;28.20;37.40
23618;DHT22;18207;32.078;34.818;2023-04-06T09:40:24;28.20;37.40
23618;DHT22;18207;32.078;34.818;2023-04-06T09:42:56;28.30;37.30
23618;DHT22;18207;32.078;34.818;2023-04-06T09:45:30;28.30;37.20
23618;DHT22;18207;32.078;34.818;2023-04-06T09:48:01;28.30;37.10
23618;DHT22;18207;32.078;34.818;2023-04-06T09:50:35;28.30;37.10
23618;DHT22;18207;32.078;34.818;2023-04-06T09:53:07;28.30;37.00
23618;DHT22;18207;32.078;34.818;2023-04-06T09:55:41;28.40;36.90
23618;DHT22;18207;32.078;34.818;2023-04-06T09:58:16;28.40;36.90
23618;DHT22;18207;32.078;34.818;2023-04-06T10:00:55;28.40;36.70
23618;DHT22;18207;32.078;34.818;2023-04-06T10:03:42;28.40;36.70
23618;DHT22;18207;32.078;34.818;2023-04-06T10:06:22;28.40;36.60
23618;DHT22;18207;32.078;34.818;2023-04-06T10:08:56;28.40;36.50
23618;DHT22;18207;32.078;34.818;2023-04-06T10:11:27;28.40;36.50
23618;DHT22;18207;32.078;34.818;2023-04-06T10:13:59;28.40;36.50
23618;DHT22;18207;32.078;34.818;2023-04-06T10:16:31;28.40;36.50
23618;DHT22;18207;32.078;34.818;2023-04-06T10:19:11;28.40;36.40
23618;DHT22;18207;32.078;34.818;2023-04-06T10:21:52;28.40;36.50
23618;DHT22;18207;32.078;34.818;2023-04-06T10:24:27;28.40;36.50
23618;DHT22;18207;32.078;34.818;2023-04-06T10:26:59;28.50;36.60
23618;DHT22;18207;32.078;34.818;2023-04-06T10:29:45;28.50;36.50
23618;DHT22;18207;32.078;34.818;2023-04-06T10:32:16;28.50;36.40
23618;DHT22;18207;32.078;34.818;2023-04-06T10:34:46;28.50;36.40
23618;DHT22;18207;32.078;34.818;2023-04-06T10:37:18;28.50;36.40
23618;DHT22;18207;32.078;34.818;2023-04-06T10:39:52;28.40;36.50
23618;DHT22;18207;32.078;34.818;2023-04-06T10:42:35;28.50;36.50
23618;DHT22;18207;32.078;34.818;2023-04-06T10:45:18;28.40;36.50
23618;DHT22;18207;32.078;34.818;2023-04-06T10:47:50;28.40;36.50
23618;DHT22;18207;32.078;34.818;2023-04-06T10:50:23;28.40;36.50
23618;DHT22;18207;32.078;34.818;2023-04-06T10:53:03;28.40;36.50
23618;DHT22;18207;32.078;34.818;2023-04-06T10:55:34;28.40;36.40
23618;DHT22;18207;32.078;34.818;2023-04-06T10:58:09;28.40;36.30
23618;DHT22;18207;32.078;34.818;2023-04-06T11:00:44;28.40;36.20
23618;DHT22;18207;32.078;34.818;2023-04-06T11:03:18;28.30;36.00
23618;DHT22;18207;32.078;34.818;2023-04-06T11:05:49;28.30;36.00
23618;DHT22;18207;32.078;34.818;2023-04-06T11:08:29;28.30;36.00
23618;DHT22;18207;32.078;34.818;2023-04-06T11:11:08;28.30;35.80
23618;DHT22;18207;32.078;34.818;2023-04-06T11:13:44;28.20;35.70
23618;DHT22;18207;32.078;34.818;2023-04-06T11:16:16;28.20;35.80
23618;DHT22;18207;32.078;34.818;2023-04-06T11:18:51;28.20;35.80
23618;DHT22;18207;32.078;34.818;2023-04-06T11:21:34;28.20;35.80
23618;DHT22;18207;32.078;34.818;2023-04-06T11:24:09;28.20;35.70
23618;DHT22;18207;32.078;34.818;2023-04-06T11:26:43;28.20;35.70
23618;DHT22;18207;32.078;34.818;2023-04-06T11:29:16;28.10;35.70
23618;DHT22;18207;32.078;34.818;2023-04-06T11:31:48;28.10;35.70
23618;DHT22;18207;32.078;34.818;2023-04-06T11:34:21;28.10;35.70
23618;DHT22;18207;32.078;34.818;2023-04-06T11:36:55;28.10;35.70
23618;DHT22;18207;32.078;34.818;2023-04-06T11:39:29;28.10;35.70
23618;DHT22;18207;32.078;34.818;2023-04-06T11:42:01;28.10;35.70
23618;DHT22;18207;32.078;34.818;2023-04-06T11:44:36;28.10;35.80
23618;DHT22;18207;32.078;34.818;2023-04-06T11:47:08;28.00;35.70
23618;DHT22;18207;32.078;34.818;2023-04-06T11:49:41;28.00;35.70
23618;DHT22;18207;32.078;34.818;2023-04-06T11:52:17;28.00;35.70
23618;DHT22;18207;32.078;34.818;2023-04-06T11:54:52;28.00;35.70
23618;DHT22;18207;32.078;34.818;2023-04-06T11:57:24;28.00;35.70
23618;DHT22;18207;32.078;34.818;2023-04-06T11:59:55;28.00;35.70
23618;DHT22;18207;32.078;34.818;2023-04-06T12:02:26;28.00;35.80
23618;DHT22;18207;32.078;34.818;2023-04-06T12:04:57;28.00;35.80
23618;DHT22;18207;32.078;34.818;2023-04-06T12:07:28;28.00;35.70
23618;DHT22;18207;32.078;34.818;2023-04-06T12:10:01;28.00;35.70
23618;DHT22;18207;32.078;34.818;2023-04-06T12:12:34;28.00;35.70
23618;DHT22;18207;32.078;34.818;2023-04-06T12:15:05;27.90;35.60
23618;DHT22;18207;32.078;34.818;2023-04-06T12:17:37;27.90;35.80
23618;DHT22;18207;32.078;34.818;2023-04-06T12:20:09;27.90;35.70
23618;DHT22;18207;32.078;34.818;2023-04-06T12:22:52;27.90;35.70
23618;DHT22;18207;32.078;34.818;2023-04-06T12:25:24;27.90;35.60
23618;DHT22;18207;32.078;34.818;2023-04-06T12:27:56;27.90;35.70
23618;DHT22;18207;32.078;34.818;2023-04-06T12:30:27;27.80;35.60
23618;DHT22;18207;32.078;34.818;2023-04-06T12:32:57;27.90;35.70
23618;DHT22;18207;32.078;34.818;2023-04-06T12:35:32;27.90;35.70
23618;DHT22;18207;32.078;34.818;2023-04-06T12:38:03;27.90;35.60
23618;DHT22;18207;32.078;34.818;2023-04-06T12:40:39;27.80;35.60
23618;DHT22;18207;32.078;34.818;2023-04-06T12:43:09;27.80;35.50
23618;DHT22;18207;32.078;34.818;2023-04-06T12:45:40;27.80;35.60
23618;DHT22;18207;32.078;34.818;2023-04-06T12:48:10;27.70;35.50
23618;DHT22;18207;32.078;34.818;2023-04-06T12:50:41;27.70;35.60
23618;DHT22;18207;32.078;34.818;2023-04-06T12:53:11;27.70;35.60
23618;DHT22;18207;32.078;34.818;2023-04-06T12:55:43;27.70;35.60
23618;DHT22;18207;32.078;34.818;2023-04-06T12:58:14;27.70;35.70
23618;DHT22;18207;32.078;34.818;2023-04-06T13:00:44;27.70;35.70
23618;DHT22;18207;32.078;34.818;2023-04-06T13:03:15;27.60;35.60
23618;DHT22;18207;32.078;34.818;2023-04-06T13:05:46;27.60;35.70
23618;DHT22;18207;32.078;34.818;2023-04-06T13:08:19;27.60;35.70
23618;DHT22;18207;32.078;34.818;2023-04-06T13:10:52;27.60;35.80
23618;DHT22;18207;32.078;34.818;2023-04-06T13:13:23;27.50;35.70
23618;DHT22;18207;32.078;34.818;2023-04-06T13:16:00;27.60;35.80
23618;DHT22;18207;32.078;34.818;2023-04-06T13:18:32;27.50;35.80
23618;DHT22;18207;32.078;34.818;2023-04-06T13:21:02;27.50;35.80
23618;DHT22;18207;32.078;34.818;2023-04-06T13:23:32;27.50;35.80
23618;DHT22;18207;32.078;34.818;2023-04-06T13:26:06;27.40;35.80
23618;DHT22;18207;32.078;34.818;2023-04-06T13:28:37;27.40;35.90
23618;DHT22;18207;32.078;34.818;2023-04-06T13:31:08;27.40;35.90
23618;DHT22;18207;32.078;34.818;2023-04-06T13:33:39;27.40;35.90
23618;DHT22;18207;32.078;34.818;2023-04-06T13:36:10;27.30;35.90
23618;DHT22;18207;32.078;34.818;2023-04-06T13:38:44;27.30;35.90
23618;DHT22;18207;32.078;34.818;2023-04-06T13:41:20;27.30;35.90
23618;DHT22;18207;32.078;34.818;2023-04-06T13:43:50;27.30;36.00
23618;DHT22;18207;32.078;34.818;2023-04-06T13:46:21;27.30;35.90
23618;DHT22;18207;32.078;34.818;2023-04-06T13:48:53;27.30;36.00
23618;DHT22;18207;32.078;34.818;2023-04-06T13:51:23;27.20;35.90
23618;DHT22;18207;32.078;34.818;2023-04-06T13:53:54;27.20;35.90
23618;DHT22;18207;32.078;34.818;2023-04-06T13:56:26;27.20;35.90
23618;DHT22;18207;32.078;34.818;2023-04-06T13:58:57;27.20;35.90
23618;DHT22;18207;32.078;34.818;2023-04-06T14:01:27;27.20;35.90
23618;DHT22;18207;32.078;34.818;2023-04-06T14:03:58;27.20;35.90
23618;DHT22;18207;32.078;34.818;2023-04-06T14:06:29;27.20;36.00
23618;DHT22;18207;32.078;34.818;2023-04-06T14:08:59;27.10;35.90
23618;DHT22;18207;32.078;34.818;2023-04-06T14:11:32;27.10;35.90
23618;DHT22;18207;32.078;34.818;2023-04-06T14:14:04;27.10;35.90
23618;DHT22;18207;32.078;34.818;2023-04-06T14:16:35;27.10;35.90
23618;DHT22;18207;32.078;34.818;2023-04-06T14:19:05;27.10;35.90
23618;DHT22;18207;32.078;34.818;2023-04-06T14:21:36;27.10;35.90
23618;DHT22;18207;32.078;34.818;2023-04-06T14:24:07;27.00;35.80
23618;DHT22;18207;32.078;34.818;2023-04-06T14:26:40;27.00;35.80
23618;DHT22;18207;32.078;34.818;2023-04-06T14:29:10;27.00;35.90
23618;DHT22;18207;32.078;34.818;2023-04-06T14:31:41;27.00;35.90
23618;DHT22;18207;32.078;34.818;2023-04-06T14:34:12;27.00;35.90
23618;DHT22;18207;32.078;34.818;2023-04-06T14:36:42;26.90;35.90
23618;DHT22;18207;32.078;34.818;2023-04-06T14:39:13;26.90;35.90
23618;DHT22;18207;32.078;34.818;2023-04-06T14:41:45;26.90;35.90
23618;DHT22;18207;32.078;34.818;2023-04-06T14:44:17;26.90;35.90
23618;DHT22;18207;32.078;34.818;2023-04-06T14:46:48;26.90;35.90
23618;DHT22;18207;32.078;34.818;2023-04-06T14:49:19;26.80;35.90
23618;DHT22;18207;32.078;34.818;2023-04-06T14:51:49;26.80;35.90
23618;DHT22;18207;32.078;34.818;2023-04-06T14:54:20;26.80;36.00
23618;DHT22;18207;32.078;34.818;2023-04-06T14:56:52;26.80;36.00
23618;DHT22;18207;32.078;34.818;2023-04-06T14:59:24;26.80;36.00
23618;DHT22;18207;32.078;34.818;2023-04-06T15:02:00;26.80;36.10
23618;DHT22;18207;32.078;34.818;2023-04-06T15:04:34;26.70;36.00
23618;DHT22;18207;32.078;34.818;2023-04-06T15:07:06;26.70;36.10
23618;DHT22;18207;32.078;34.818;2023-04-06T15:09:37;26.70;36.10
23618;DHT22;18207;32.078;34.818;2023-04-06T15:12:10;26.70;36.10
23618;DHT22;18207;32.078;34.818;2023-04-06T15:14:41;26.70;36.20
23618;DHT22;18207;32.078;34.818;2023-04-06T15:17:12;26.70;36.20
23618;DHT22;18207;32.078;34.818;2023-04-06T15:19:42;26.60;36.10
23618;DHT22;18207;32.078;34.818;2023-04-06T15:22:13;26.60;36.20
23618;DHT22;18207;32.078;34.818;2023-04-06T15:24:43;26.60;36.20
23618;DHT22;18207;32.078;34.818;2023-04-06T15:27:16;26.60;36.10
23618;DHT22;18207;32.078;34.818;2023-04-06T15:29:46;26.60;36.20
23618;DHT22;18207;32.078;34.818;2023-04-06T15:32:17;26.60;36.20
23618;DHT22;18207;32.078;34.818;2023-04-06T15:34:48;26.60;36.20
23618;DHT22;18207;32.078;34.818;2023-04-06T15:37:18;26.50;36.10
23618;DHT22;18207;32.078;34.818;2023-04-06T15:39:49;26.50;36.20
23618;DHT22;18207;32.078;34.818;2023-04-06T15:42:22;26.50;36.20
23618;DHT22;18207;32.078;34.818;2023-04-06T15:44:53;26.50;36.20
23618;DHT22;18207;32.078;34.818;2023-04-06T15:47:23;26.50;36.20
23618;DHT22;18207;32.078;34.818;2023-04-06T15:49:53;26.40;36.20
23618;DHT22;18207;32.078;34.818;2023-04-06T15:52:23;26.40;36.20
23618;DHT22;18207;32.078;34.818;2023-04-06T15:54:54;26.40;36.30
23618;DHT22;18207;32.078;34.818;2023-04-06T15:57:26;26.40;36.30
23618;DHT22;18207;32.078;34.818;2023-04-06T15:59:56;26.40;36.30
23618;DHT22;18207;32.078;34.818;2023-04-06T16:02:27;26.30;36.20
23618;DHT22;18207;32.078;34.818;2023-04-06T16:04:57;26.30;36.30
23618;DHT22;18207;32.078;34.818;2023-04-06T16:07:30;26.30;36.30
23618;DHT22;18207;32.078;34.818;2023-04-06T16:10:02;26.20;36.30
23618;DHT22;18207;32.078;34.818;2023-04-06T16:12:40;26.20;36.30
23618;DHT22;18207;32.078;34.818;2023-04-06T16:15:11;26.20;36.30
23618;DHT22;18207;32.078;34.818;2023-04-06T16:17:42;26.20;36.30